Weather at Royal Vista Estate Private Helipad

Public forecast

Using degrees Celsius for public forecast. Weather courtesy of forecast.io.

Closest aviation weather report (METAR) to Royal Vista Estate Private Helipad

Report is more than 2 hours old.

Closest report is Owen Roberts International Airport, 12.4 nm (23.0 km) WSW. Retrieved 2021/03/02 03:00 UTC (4 hours ago):

MWCR 020300Z 06007KT 9999 FEW018 26/23 Q1016

Closest aviation forecast (TAF) to Royal Vista Estate Private Helipad

Forecast is more than 6 hours old.

Closest forecast is Owen Roberts International Airport, 12.4 nm (23.0 km) WSW. Retrieved 2021-03-02 00:07 UTC (7 hours ago):

TAF MWCR 020300Z 0200/0224 CNL